Time;durP1;ratioP1;P1;durP2;ratioP2;P2;SDS_P1;SDS_P2;PMS_P1;PMS_P2;Temp;Humidity;BMP_temperature;BMP_pressure;BME280_temperature;BME280_humidity;BME280_pressure;Samples;Min_cycle;Max_cycle;Signal;HPM_P1;HPM_P2
2023/08/06 00:01:26;;;;;;;5.22;3.20;;;;;;;20.26;75.31;99131.66;5020778;28;20042;-83
2023/08/06 00:03:52;;;;;;;2.92;2.70;;;;;;;20.22;75.73;99129.59;5003102;28;20049;-83
2023/08/06 00:06:19;;;;;;;4.03;2.25;;;;;;;20.22;75.24;99127.72;5004320;28;20124;-83
2023/08/06 00:08:46;;;;;;;5.97;2.92;;;;;;;20.22;75.53;99127.72;4982938;28;20405;-83
2023/08/06 00:11:13;;;;;;;5.30;2.70;;;;;;;20.21;75.74;99126.06;4988400;28;20046;-83
2023/08/06 00:13:40;;;;;;;4.07;2.70;;;;;;;20.22;75.90;99124.19;4999178;28;20422;-83
2023/08/06 00:16:11;;;;;;;5.22;2.90;;;;;;;20.17;76.24;99123.00;5003742;28;20485;-83
2023/08/06 00:18:38;;;;;;;3.95;2.50;;;;;;;20.22;75.93;99118.81;5034722;28;20043;-83
2023/08/06 00:21:05;;;;;;;3.42;2.50;;;;;;;20.20;75.82;99113.66;4985531;28;20043;-83
2023/08/06 00:23:32;;;;;;;7.55;2.65;;;;;;;20.20;75.98;99112.81;4978027;28;20054;-83
2023/08/06 00:25:59;;;;;;;4.00;2.58;;;;;;;20.19;76.09;99100.38;4987565;28;20113;-83
2023/08/06 00:28:25;;;;;;;6.30;2.22;;;;;;;20.17;76.32;99105.97;5020996;28;20041;-84
2023/08/06 00:30:55;;;;;;;3.25;2.40;;;;;;;20.16;76.13;99099.75;5005165;28;20046;-84
2023/08/06 00:33:23;;;;;;;3.78;2.58;;;;;;;20.16;76.16;99099.75;4998767;28;20050;-83
2023/08/06 00:35:50;;;;;;;7.15;3.85;;;;;;;20.14;75.69;99101.03;5003949;28;20056;-83
2023/08/06 00:38:17;;;;;;;2.55;2.20;;;;;;;20.12;75.44;99092.31;4992507;28;20034;-83
2023/08/06 00:40:45;;;;;;;4.95;2.60;;;;;;;20.10;75.32;99092.56;5000773;28;20401;-83
2023/08/06 00:43:12;;;;;;;5.10;2.67;;;;;;;20.07;75.34;99084.88;4983941;28;20126;-83
2023/08/06 00:45:39;;;;;;;4.65;2.40;;;;;;;20.07;75.04;99095.66;4993104;28;20054;-83
2023/08/06 00:48:07;;;;;;;4.78;2.50;;;;;;;20.08;75.25;99093.81;5017941;28;20050;-84
2023/08/06 00:50:33;;;;;;;5.05;2.88;;;;;;;20.07;74.99;99086.75;4999805;28;20049;-83
2023/08/06 00:53:01;;;;;;;2.50;2.30;;;;;;;20.07;75.32;99086.75;5014917;28;20543;-83
2023/08/06 00:55:27;;;;;;;4.18;2.70;;;;;;;20.05;75.45;99078.03;5019374;28;20104;-84
2023/08/06 00:57:56;;;;;;;2.85;2.40;;;;;;;20.04;75.32;99071.84;5018327;28;20397;-83
2023/08/06 01:00:24;;;;;;;3.33;2.80;;;;;;;20.03;75.44;99070.19;5034541;28;20130;-83
2023/08/06 01:02:51;;;;;;;3.85;2.63;;;;;;;20.04;75.41;99068.31;5020123;28;20045;-84
2023/08/06 01:05:17;;;;;;;7.85;2.47;;;;;;;20.01;75.56;99064.19;5000541;28;20409;-84
2023/08/06 01:08:08;;;;;;;3.53;2.67;;;;;;;19.92;76.50;99068.16;5021664;28;20048;-83
2023/08/06 01:11:04;;;;;;;4.60;2.35;;;;;;;19.92;76.18;99065.47;5019630;28;20042;-84
2023/08/06 01:13:49;;;;;;;7.40;2.55;;;;;;;19.91;76.26;99053.06;4994946;28;20051;-84
2023/08/06 01:16:20;;;;;;;2.97;2.22;;;;;;;20.00;75.56;99053.63;4985836;28;20055;-84
2023/08/06 01:18:49;;;;;;;3.53;2.67;;;;;;;20.02;75.64;99057.75;4969102;28;20050;-83
2023/08/06 01:21:17;;;;;;;5.25;2.45;;;;;;;20.01;75.37;99049.91;4969108;28;20043;-83
2023/08/06 01:23:44;;;;;;;6.38;2.50;;;;;;;20.00;75.91;99043.69;4956371;28;20050;-83
2023/08/06 01:26:41;;;;;;;2.58;2.30;;;;;;;19.92;76.17;99049.31;4983767;28;20054;-83
2023/08/06 01:29:16;;;;;;;4.47;2.60;;;;;;;19.91;76.08;99042.28;4983117;28;20792;-84
2023/08/06 01:31:43;;;;;;;3.95;2.30;;;;;;;19.98;76.14;99034.16;4980099;28;20133;-84
2023/08/06 01:34:15;;;;;;;4.30;2.08;;;;;;;19.97;76.10;99037.88;4966000;28;20050;-83
2023/08/06 01:36:42;;;;;;;3.15;2.38;;;;;;;19.97;76.26;99030.63;5001526;28;20519;-83
2023/08/06 01:39:08;;;;;;;4.05;2.78;;;;;;;19.97;76.04;99030.63;4953612;28;20114;-83
2023/08/06 01:41:35;;;;;;;8.05;3.00;;;;;;;19.96;76.16;99020.91;4979283;28;20067;-84
2023/08/06 01:44:03;;;;;;;4.05;3.03;;;;;;;19.99;75.98;99016.94;4990639;28;20125;-84
2023/08/06 01:46:31;;;;;;;3.67;2.75;;;;;;;19.98;76.26;99018.00;4989965;28;20072;-83
2023/08/06 01:48:58;;;;;;;4.53;2.50;;;;;;;19.95;76.16;99013.88;5005507;28;20049;-84
2023/08/06 01:51:25;;;;;;;3.25;2.40;;;;;;;19.93;76.68;99014.06;4992178;28;20130;-83
2023/08/06 01:53:52;;;;;;;2.40;2.17;;;;;;;19.95;76.61;99019.25;4994319;28;20049;-84
2023/08/06 01:56:19;;;;;;;4.20;2.88;;;;;;;19.97;76.59;99013.63;5018022;28;20513;-84
2023/08/06 01:58:45;;;;;;;3.50;2.38;;;;;;;19.93;76.97;99011.38;4986410;28;20042;-84
2023/08/06 02:01:12;;;;;;;3.80;2.90;;;;;;;19.89;76.49;99007.44;5016562;28;20131;-84
2023/08/06 02:03:39;;;;;;;4.43;3.10;;;;;;;19.90;76.85;99003.72;5006254;28;20427;-84
2023/08/06 02:06:06;;;;;;;3.58;2.90;;;;;;;19.92;76.80;99003.50;5018800;28;20121;-84
2023/08/06 02:08:33;;;;;;;5.22;2.70;;;;;;;19.92;76.62;98993.56;4958495;28;20128;-84
2023/08/06 02:11:00;;;;;;;4.50;2.80;;;;;;;19.89;76.78;98999.38;5013140;28;20068;-84
2023/08/06 02:13:26;;;;;;;6.28;2.85;;;;;;;19.90;76.80;99003.72;5024934;28;20043;-84
2023/08/06 02:15:53;;;;;;;2.95;2.67;;;;;;;19.88;77.02;98992.34;5005182;28;20402;-84
2023/08/06 02:18:20;;;;;;;3.28;2.75;;;;;;;19.88;77.17;98986.13;5020001;28;20503;-83
2023/08/06 02:20:59;;;;;;;3.00;2.70;;;;;;;19.82;77.34;98990.53;5021811;28;20049;-83
2023/08/06 02:23:28;;;;;;;7.07;3.00;;;;;;;19.87;77.06;98987.16;5003041;28;20056;-83
2023/08/06 02:26:01;;;;;;;4.88;3.08;;;;;;;19.82;77.16;98976.22;5006221;28;20445;-83
2023/08/06 02:28:29;;;;;;;5.22;2.80;;;;;;;19.83;77.26;98975.19;5017897;28;20042;-83
2023/08/06 02:30:56;;;;;;;6.97;2.90;;;;;;;19.84;77.37;98971.44;4985964;28;20746;-83
2023/08/06 02:33:23;;;;;;;4.07;2.88;;;;;;;19.82;77.24;98968.13;4965512;28;20042;-84
2023/08/06 02:35:49;;;;;;;4.43;2.65;;;;;;;19.80;77.11;98975.63;5006981;28;20046;-83
2023/08/06 02:38:16;;;;;;;3.50;2.88;;;;;;;19.79;77.06;98969.38;4987267;28;20042;-84
2023/08/06 02:40:46;;;;;;;6.32;2.83;;;;;;;19.77;76.82;98967.94;5023037;28;20054;-84
2023/08/06 02:43:14;;;;;;;4.97;2.85;;;;;;;19.80;77.29;98959.47;5022413;28;20526;-84
2023/08/06 02:45:41;;;;;;;4.68;2.83;;;;;;;19.78;77.23;98958.84;4988709;28;20379;-83
2023/08/06 02:48:08;;;;;;;3.67;2.30;;;;;;;19.78;77.33;98951.59;5005602;28;20073;-84
2023/08/06 02:50:39;;;;;;;3.63;3.00;;;;;;;19.76;77.23;98956.34;5020734;28;20049;-84
2023/08/06 02:53:07;;;;;;;4.75;2.95;;;;;;;19.76;77.49;98961.75;4965667;28;20399;-84
2023/08/06 02:55:34;;;;;;;3.58;2.92;;;;;;;19.77;77.40;98962.56;4967171;28;20507;-84
2023/08/06 02:58:05;;;;;;;6.32;3.03;;;;;;;19.75;76.99;98953.91;4969261;28;20054;-85
2023/08/06 03:00:36;;;;;;;3.08;2.78;;;;;;;19.72;76.83;98953.28;5004406;28;20061;-84
2023/08/06 03:03:05;;;;;;;3.33;2.67;;;;;;;19.75;77.00;98959.28;4990290;28;20046;-84
2023/08/06 03:05:52;;;;;;;5.18;3.00;;;;;;;19.70;77.22;98959.94;4999964;28;20444;-84
2023/08/06 03:08:26;;;;;;;4.57;3.10;;;;;;;19.72;77.31;98955.97;4989476;28;20489;-84
2023/08/06 03:10:53;;;;;;;7.30;2.72;;;;;;;19.73;77.26;98951.41;5006560;28;20054;-84
2023/08/06 03:13:21;;;;;;;5.95;3.00;;;;;;;19.71;76.80;98954.31;4985790;28;20082;-84
2023/08/06 03:15:53;;;;;;;3.28;2.80;;;;;;;19.67;77.20;98954.97;5004990;28;20045;-83
2023/08/06 03:18:21;;;;;;;6.72;3.00;;;;;;;19.68;77.17;98951.22;4959480;28;20049;-83
2023/08/06 03:20:49;;;;;;;5.07;3.38;;;;;;;19.66;77.06;98948.72;4998212;28;20045;-84
2023/08/06 03:23:18;;;;;;;4.68;2.95;;;;;;;19.67;77.19;98939.63;4981599;28;20518;-83
2023/08/06 03:25:45;;;;;;;8.13;2.97;;;;;;;19.66;77.19;98942.50;5021773;28;20049;-83
2023/08/06 03:28:13;;;;;;;3.17;2.85;;;;;;;19.66;77.21;98947.88;4991152;28;20502;-84
2023/08/06 03:30:41;;;;;;;2.97;2.53;;;;;;;19.62;77.23;98952.91;4969451;28;20043;-83
2023/08/06 03:33:10;;;;;;;3.72;3.03;;;;;;;19.64;77.51;98941.88;4978470;28;20394;-83
2023/08/06 03:35:37;;;;;;;3.00;2.70;;;;;;;19.62;77.31;98944.00;4966792;28;20048;-83
2023/08/06 03:38:04;;;;;;;4.78;2.95;;;;;;;19.59;77.30;98947.09;4956702;28;20486;-83
2023/08/06 03:40:31;;;;;;;5.97;3.10;;;;;;;19.61;77.29;98948.53;4956546;28;20057;-83
2023/08/06 03:42:59;;;;;;;3.40;2.85;;;;;;;19.59;77.36;98944.41;4968793;28;20096;-83
2023/08/06 03:45:25;;;;;;;5.57;3.08;;;;;;;19.59;77.68;98939.88;4960794;28;20050;-83
2023/08/06 03:47:53;;;;;;;3.38;2.55;;;;;;;19.57;77.21;98943.81;5006047;28;20046;-83
2023/08/06 03:50:20;;;;;;;5.30;2.67;;;;;;;19.58;77.59;98943.59;4992254;28;20042;-83
2023/08/06 03:52:46;;;;;;;6.93;2.58;;;;;;;19.59;77.07;98937.19;4958290;28;20054;-84
2023/08/06 03:55:13;;;;;;;3.08;2.45;;;;;;;19.55;76.81;98938.63;4962579;28;20056;-83
2023/08/06 03:57:40;;;;;;;5.03;2.55;;;;;;;19.58;75.61;98937.38;4970942;28;20682;-83
2023/08/06 04:00:08;;;;;;;4.72;2.10;;;;;;;19.57;74.73;98941.13;4986415;28;20413;-84
2023/08/06 04:02:40;;;;;;;3.00;2.00;;;;;;;19.54;74.46;98942.38;5005528;28;20049;-84
2023/08/06 04:05:09;;;;;;;5.55;2.15;;;;;;;19.52;73.85;98944.47;4999526;28;20434;-83
2023/08/06 04:07:35;;;;;;;3.35;2.00;;;;;;;19.51;73.46;98943.63;4968795;28;20046;-83
2023/08/06 04:10:04;;;;;;;3.88;2.03;;;;;;;19.51;73.15;98934.72;4948969;28;20042;-83
2023/08/06 04:12:32;;;;;;;5.97;2.10;;;;;;;19.48;73.03;98949.44;4950245;28;20061;-83
2023/08/06 04:15:00;;;;;;;4.13;2.00;;;;;;;19.48;72.78;98954.00;4969682;28;20047;-83
2023/08/06 04:17:29;;;;;;;5.22;2.35;;;;;;;19.48;72.40;98944.03;4964594;28;20043;-83
2023/08/06 04:19:58;;;;;;;2.75;1.75;;;;;;;19.43;72.82;98945.75;4984669;28;20128;-83
2023/08/06 04:22:25;;;;;;;5.05;1.75;;;;;;;19.41;72.96;98945.13;5019180;28;20117;-84
2023/08/06 04:24:52;;;;;;;5.10;2.72;;;;;;;19.42;72.51;98944.91;5013784;28;20660;-83
2023/08/06 04:27:19;;;;;;;4.32;1.80;;;;;;;19.41;72.67;98947.81;4974641;28;20438;-83
2023/08/06 04:29:48;;;;;;;4.97;2.00;;;;;;;19.40;72.68;98941.59;4953194;28;20113;-83
2023/08/06 04:32:15;;;;;;;8.80;2.20;;;;;;;19.39;72.69;98931.06;4954045;28;20481;-83
2023/08/06 04:34:47;;;;;;;6.20;1.65;;;;;;;19.41;72.73;98937.91;4987256;28;20857;-83
2023/08/06 04:37:15;;;;;;;7.30;1.70;;;;;;;19.42;72.38;98942.22;4975618;28;20393;-84
2023/08/06 04:39:42;;;;;;;8.40;1.98;;;;;;;19.39;72.74;98936.47;5018838;28;20120;-83
2023/08/06 04:42:10;;;;;;;4.05;1.88;;;;;;;19.39;72.52;98929.19;4984308;28;20412;-83
2023/08/06 04:44:36;;;;;;;4.45;2.08;;;;;;;19.41;72.37;98940.59;4971000;28;20056;-83
2023/08/06 04:47:04;;;;;;;6.40;1.55;;;;;;;19.44;71.09;98939.34;4976983;28;20049;-83
2023/08/06 04:49:30;;;;;;;3.72;1.30;;;;;;;19.41;70.58;98940.59;4998958;28;20048;-84
2023/08/06 04:51:57;;;;;;;5.70;1.45;;;;;;;19.40;70.95;98932.72;5018575;28;20045;-83
2023/08/06 04:54:24;;;;;;;4.22;1.45;;;;;;;19.39;70.09;98937.28;5002004;28;20070;-83
2023/08/06 04:56:51;;;;;;;3.15;1.38;;;;;;;19.40;70.38;98932.72;4987796;28;20077;-83
2023/08/06 04:59:17;;;;;;;5.25;1.85;;;;;;;19.38;70.82;98927.53;5034241;28;21040;-83
2023/08/06 05:01:44;;;;;;;5.45;2.05;;;;;;;19.39;70.73;98933.75;5013617;28;20064;-83
2023/08/06 05:04:11;;;;;;;4.30;1.42;;;;;;;19.40;70.86;98932.72;5019186;28;20049;-83
2023/08/06 05:06:38;;;;;;;4.35;1.20;;;;;;;19.37;69.87;98933.16;5016050;28;20478;-83
2023/08/06 05:09:06;;;;;;;3.90;1.20;;;;;;;19.40;69.80;98932.72;5004355;28;20045;-83
2023/08/06 05:11:32;;;;;;;3.75;1.33;;;;;;;19.35;71.07;98937.91;4988929;28;20050;-83
2023/08/06 05:13:59;;;;;;;3.45;1.50;;;;;;;19.33;71.58;98937.28;5040322;28;20111;-84
2023/08/06 05:16:26;;;;;;;5.40;1.40;;;;;;;19.33;71.55;98946.19;5023120;28;20116;-83
2023/08/06 05:18:53;;;;;;;3.05;1.65;;;;;;;19.32;71.97;98952.63;4965989;28;20405;-83
2023/08/06 05:21:20;;;;;;;6.43;1.30;;;;;;;19.27;72.37;98944.38;4991764;28;20042;-83
2023/08/06 05:23:46;;;;;;;2.88;1.05;;;;;;;19.27;71.99;98945.19;4972504;28;20489;-83
2023/08/06 05:26:15;;;;;;;5.30;1.48;;;;;;;19.29;71.81;98947.69;4990276;28;20481;-84
2023/08/06 05:28:42;;;;;;;4.80;1.63;;;;;;;19.22;72.32;98939.63;5033977;28;20053;-84
2023/08/06 05:31:09;;;;;;;2.78;1.50;;;;;;;19.20;72.82;98936.31;5025050;28;20550;-83
2023/08/06 05:33:36;;;;;;;4.78;1.65;;;;;;;19.21;72.56;98940.69;5000992;28;20496;-84
2023/08/06 05:36:03;;;;;;;6.43;1.75;;;;;;;19.20;72.47;98943.56;5004065;28;20045;-83
2023/08/06 05:38:30;;;;;;;4.07;1.48;;;;;;;19.16;72.84;98945.88;5006592;28;20109;-84
2023/08/06 05:40:57;;;;;;;3.78;1.38;;;;;;;19.15;72.90;98943.38;5008946;28;20108;-83
2023/08/06 05:43:24;;;;;;;3.28;1.35;;;;;;;19.19;72.88;98950.00;5018432;28;20057;-83
2023/08/06 05:45:51;;;;;;;2.30;1.50;;;;;;;19.17;73.62;98942.13;4991049;28;20116;-84
2023/08/06 05:48:18;;;;;;;1.88;1.38;;;;;;;19.17;73.18;98946.69;4990602;28;20058;-84
2023/08/06 05:50:44;;;;;;;2.33;1.33;;;;;;;19.16;73.46;98953.09;5006793;28;20046;-83
2023/08/06 05:53:11;;;;;;;5.07;1.40;;;;;;;19.17;72.90;98950.19;5010480;28;20105;-83
2023/08/06 05:55:38;;;;;;;4.43;1.48;;;;;;;19.15;73.46;98956.84;5004224;28;20053;-83
2023/08/06 05:58:05;;;;;;;2.65;1.50;;;;;;;19.12;73.57;98955.41;5038450;28;20445;-83
2023/08/06 06:00:32;;;;;;;3.97;1.58;;;;;;;19.14;73.76;98957.88;5006309;28;20053;-84
2023/08/06 06:02:59;;;;;;;4.10;1.08;;;;;;;19.12;73.68;98959.97;4992853;28;20046;-84
2023/08/06 06:05:26;;;;;;;7.45;1.63;;;;;;;19.09;74.56;98953.13;4988307;28;20069;-84
2023/08/06 06:07:52;;;;;;;3.22;1.10;;;;;;;19.11;74.13;98953.75;5020480;28;20046;-84
2023/08/06 06:10:19;;;;;;;3.72;1.35;;;;;;;19.16;73.66;98956.63;5002315;28;20137;-84
2023/08/06 06:12:46;;;;;;;1.52;1.08;;;;;;;19.15;73.22;98946.06;4989570;28;20515;-84
2023/08/06 06:15:13;;;;;;;4.00;1.35;;;;;;;19.19;73.53;98961.59;5023060;28;20037;-84
2023/08/06 06:17:39;;;;;;;4.85;1.30;;;;;;;19.20;72.78;98957.03;4987033;28;20109;-84
2023/08/06 06:20:07;;;;;;;4.03;1.05;;;;;;;19.19;73.30;98958.91;4989340;28;20515;-84
2023/08/06 06:22:34;;;;;;;2.78;0.95;;;;;;;19.19;73.46;98966.97;5021400;28;20093;-83
2023/08/06 06:25:00;;;;;;;4.85;1.13;;;;;;;19.16;73.37;98966.56;5007448;28;20125;-83
2023/08/06 06:27:27;;;;;;;1.48;0.80;;;;;;;19.20;73.42;98965.09;5017725;28;20053;-84
2023/08/06 06:29:54;;;;;;;2.55;0.75;;;;;;;19.19;73.48;98971.53;5023225;28;20468;-83
2023/08/06 06:32:21;;;;;;;1.35;0.90;;;;;;;19.19;73.37;98966.97;4991440;28;20119;-83
2023/08/06 06:34:48;;;;;;;2.42;0.90;;;;;;;19.18;73.25;98968.00;5018423;28;20045;-83
2023/08/06 06:37:15;;;;;;;1.92;0.90;;;;;;;19.18;72.72;98973.38;5022481;28;20496;-83
2023/08/06 06:39:42;;;;;;;3.40;0.88;;;;;;;19.15;72.67;98971.09;5021156;28;20042;-84
2023/08/06 06:42:08;;;;;;;1.13;0.80;;;;;;;19.13;73.00;98965.09;4982426;28;20046;-83
2023/08/06 06:44:42;;;;;;;1.20;0.73;;;;;;;19.11;72.60;98975.28;4937782;28;20550;-84
2023/08/06 06:47:08;;;;;;;0.82;0.77;;;;;;;19.10;72.70;98968.22;4953423;28;20057;-83
2023/08/06 06:49:35;;;;;;;1.35;0.80;;;;;;;19.05;73.15;98960.78;4968575;28;20081;-84
2023/08/06 06:52:02;;;;;;;2.80;0.90;;;;;;;19.03;73.69;98967.41;4971181;28;20042;-83
2023/08/06 06:54:29;;;;;;;1.67;1.00;;;;;;;19.02;74.38;98968.47;4964621;28;20391;-83
2023/08/06 06:56:56;;;;;;;2.88;1.00;;;;;;;18.99;74.08;98966.22;5000785;28;20054;-83
2023/08/06 06:59:22;;;;;;;3.42;0.98;;;;;;;18.99;74.47;98974.28;5004075;28;20050;-83
2023/08/06 07:01:49;;;;;;;4.25;0.73;;;;;;;18.98;74.72;98973.47;5003528;28;20666;-83
2023/08/06 07:04:16;;;;;;;3.13;0.63;;;;;;;18.94;74.73;98972.22;5024931;28;20053;-83
2023/08/06 07:06:43;;;;;;;0.70;0.60;;;;;;;18.95;74.92;98973.03;5006278;28;20116;-83
2023/08/06 07:09:10;;;;;;;1.88;0.80;;;;;;;18.91;75.34;98975.34;4968964;28;20130;-83
2023/08/06 07:11:36;;;;;;;2.75;0.80;;;;;;;18.92;75.12;98974.28;4983635;28;20046;-83
2023/08/06 07:14:03;;;;;;;1.40;0.65;;;;;;;19.00;74.70;98965.97;4950703;28;20133;-86
2023/08/06 07:16:30;;;;;;;2.72;1.02;;;;;;;18.98;74.49;98972.59;4982902;28;20066;-86
2023/08/06 07:18:57;;;;;;;1.77;0.70;;;;;;;19.00;73.51;98970.53;4968893;28;20066;-85
2023/08/06 07:21:23;;;;;;;2.60;0.90;;;;;;;18.98;74.56;98970.78;4972099;28;20557;-86
2023/08/06 07:23:50;;;;;;;1.27;0.88;;;;;;;18.99;75.09;98971.59;4964584;28;20052;-83
2023/08/06 07:26:17;;;;;;;3.33;0.73;;;;;;;18.96;74.83;98967.47;4961288;28;20137;-83
2023/08/06 07:28:44;;;;;;;2.15;0.80;;;;;;;18.98;75.14;98972.59;4977482;28;20394;-83
2023/08/06 07:31:11;;;;;;;2.80;1.05;;;;;;;18.98;74.91;98968.06;4982966;28;20605;-83
2023/08/06 07:33:39;;;;;;;0.95;0.70;;;;;;;18.97;75.54;98963.72;4982829;28;20097;-83
2023/08/06 07:36:12;;;;;;;0.98;0.80;;;;;;;18.95;76.33;98965.78;4958870;28;20046;-83
2023/08/06 07:38:39;;;;;;;4.18;0.90;;;;;;;19.02;75.28;98971.97;4974012;28;20052;-84
2023/08/06 07:41:06;;;;;;;1.10;0.70;;;;;;;19.00;75.27;98963.28;4980667;28;20074;-83
2023/08/06 07:43:33;;;;;;;1.20;0.68;;;;;;;19.00;75.07;98965.97;4959378;28;20078;-82
2023/08/06 07:46:00;;;;;;;0.73;0.68;;;;;;;19.03;74.80;98973.66;4979115;28;20049;-83
2023/08/06 07:48:28;;;;;;;1.60;0.77;;;;;;;19.05;74.05;98968.03;4970976;28;20141;-83
2023/08/06 07:50:55;;;;;;;1.33;0.70;;;;;;;19.03;74.48;98970.97;4999788;28;20049;-84
2023/08/06 07:53:23;;;;;;;1.55;0.60;;;;;;;19.01;74.48;98969.53;4987151;28;20421;-83
2023/08/06 07:55:53;;;;;;;1.27;0.90;;;;;;;18.97;74.95;98973.66;5014303;28;20524;-83
2023/08/06 07:58:21;;;;;;;1.80;0.75;;;;;;;18.97;75.45;98963.72;4994315;28;20052;-83
2023/08/06 08:00:48;;;;;;;0.80;0.70;;;;;;;19.00;75.46;98968.66;5018476;28;20053;-84
2023/08/06 08:03:16;;;;;;;1.85;0.70;;;;;;;18.99;75.26;98960.84;5018201;28;20065;-83
2023/08/06 08:05:43;;;;;;;1.42;0.52;;;;;;;18.96;74.00;98962.06;5019446;28;20053;-83
2023/08/06 08:08:10;;;;;;;3.03;0.60;;;;;;;18.92;74.68;98963.53;5013877;28;20045;-83
2023/08/06 08:10:38;;;;;;;0.82;0.60;;;;;;;18.93;74.64;98962.50;4996541;28;20038;-83
2023/08/06 08:13:05;;;;;;;2.30;1.45;;;;;;;18.96;74.76;98961.25;5001209;28;20041;-81
2023/08/06 08:15:32;;;;;;;2.70;1.70;;;;;;;18.95;75.46;98960.41;5018078;28;20041;-83
2023/08/06 08:18:00;;;;;;;1.77;0.70;;;;;;;18.99;75.57;98963.53;4988594;28;20490;-83
2023/08/06 08:20:31;;;;;;;0.90;0.60;;;;;;;19.02;75.59;98971.16;4987388;28;20033;-82
2023/08/06 08:23:00;;;;;;;0.50;0.50;;;;;;;18.96;74.91;98961.25;5002288;28;20046;-82
2023/08/06 08:25:27;;;;;;;2.00;0.60;;;;;;;18.92;74.98;98957.31;4980231;28;20549;-83
2023/08/06 08:27:57;;;;;;;0.68;0.60;;;;;;;18.97;74.85;98962.91;4985756;28;20125;-83
2023/08/06 08:30:24;;;;;;;0.68;0.68;;;;;;;18.98;75.58;98961.84;5017305;28;20401;-83
2023/08/06 08:32:52;;;;;;;0.60;0.60;;;;;;;18.99;74.98;98958.13;5015307;28;20042;-82
2023/08/06 08:35:19;;;;;;;2.15;0.80;;;;;;;19.03;75.26;98967.41;5032500;28;20128;-83
2023/08/06 08:37:45;;;;;;;0.85;0.50;;;;;;;19.08;75.13;98973.00;4996689;28;20129;-83
2023/08/06 08:40:14;;;;;;;0.50;0.50;;;;;;;19.07;75.53;98952.50;4965145;28;20149;-83
2023/08/06 08:42:42;;;;;;;1.15;0.80;;;;;;;19.08;76.15;98955.00;5031252;28;20044;-83
2023/08/06 08:45:14;;;;;;;0.52;0.52;;;;;;;19.00;74.46;98954.41;4983632;28;20045;-83
2023/08/06 08:47:42;;;;;;;1.40;0.70;;;;;;;19.04;75.08;98953.75;5016523;28;20046;-83
2023/08/06 08:50:10;;;;;;;1.13;0.60;;;;;;;18.94;75.37;98953.38;4996271;28;20071;-83
2023/08/06 08:52:39;;;;;;;1.38;0.60;;;;;;;18.95;76.51;98954.22;4952393;28;20089;-82
2023/08/06 08:55:07;;;;;;;0.73;0.50;;;;;;;18.94;76.14;98957.94;4982552;28;20035;-83
2023/08/06 08:57:34;;;;;;;0.50;0.50;;;;;;;18.95;76.86;98956.91;4979825;28;20096;-83
2023/08/06 09:00:01;;;;;;;1.85;0.50;;;;;;;18.97;76.31;98960.22;4977297;28;20043;-83
2023/08/06 09:02:31;;;;;;;1.85;0.50;;;;;;;19.02;76.94;98949.63;4980662;28;20053;-83
2023/08/06 09:05:02;;;;;;;1.20;0.57;;;;;;;19.12;77.20;98946.50;4972035;28;20470;-83
2023/08/06 09:07:33;;;;;;;6.35;0.77;;;;;;;19.21;77.24;98945.22;4961875;28;20423;-83
2023/08/06 09:10:03;;;;;;;0.65;0.50;;;;;;;19.29;77.39;98935.03;4966336;28;20097;-82
2023/08/06 09:12:30;;;;;;;1.00;0.90;;;;;;;19.32;77.20;98941.03;4966508;28;20873;-83
2023/08/06 09:14:57;;;;;;;0.50;0.50;;;;;;;19.34;76.96;98939.78;4979668;28;21000;-83
2023/08/06 09:17:24;;;;;;;0.70;0.60;;;;;;;19.40;77.35;98947.00;4976859;28;20050;-83
2023/08/06 09:19:51;;;;;;;1.38;0.80;;;;;;;19.46;78.09;98945.31;4970401;28;20049;-82
2023/08/06 09:22:18;;;;;;;1.65;0.70;;;;;;;19.47;77.44;98936.19;4970224;28;20505;-83
2023/08/06 09:24:45;;;;;;;1.63;0.52;;;;;;;19.47;76.87;98944.28;4981099;28;20046;-83
2023/08/06 09:27:15;;;;;;;2.97;0.80;;;;;;;19.45;77.38;98943.66;4981846;28;20043;-83
2023/08/06 09:29:45;;;;;;;1.20;0.70;;;;;;;19.43;77.21;98941.16;4963428;28;20457;-83
2023/08/06 09:32:13;;;;;;;1.10;0.40;;;;;;;19.49;77.01;98939.50;5019334;28;20105;-83
2023/08/06 09:34:41;;;;;;;1.92;0.40;;;;;;;19.52;77.81;98939.06;4954156;28;20572;-83
2023/08/06 09:37:10;;;;;;;1.30;0.50;;;;;;;19.51;76.82;98946.34;4982222;28;20042;-83
2023/08/06 09:39:40;;;;;;;3.08;0.60;;;;;;;19.46;76.76;98939.91;4983127;28;20466;-82
2023/08/06 09:42:07;;;;;;;0.70;0.60;;;;;;;19.42;77.10;98944.09;4947517;28;20039;-83
2023/08/06 09:44:34;;;;;;;0.30;0.30;;;;;;;19.46;77.07;98948.00;4980296;28;20133;-83
2023/08/06 09:47:03;;;;;;;0.30;0.30;;;;;;;19.44;76.82;98944.72;4938736;28;20053;-83
2023/08/06 09:49:33;;;;;;;0.65;0.30;;;;;;;19.35;76.72;98956.75;4975294;28;20069;-83
2023/08/06 09:52:00;;;;;;;0.40;0.40;;;;;;;19.36;76.44;98944.94;5016056;28;20508;-83
2023/08/06 09:54:28;;;;;;;0.55;0.40;;;;;;;19.33;77.22;98954.28;4985135;28;20256;-82
2023/08/06 09:56:55;;;;;;;0.43;0.43;;;;;;;19.37;76.58;98957.38;5004655;28;20379;-83
2023/08/06 09:59:25;;;;;;;0.40;0.40;;;;;;;19.47;76.09;98953.19;4989865;28;20477;-82
2023/08/06 10:01:53;;;;;;;1.30;0.60;;;;;;;19.45;76.65;98949.03;4987795;28;20053;-83
2023/08/06 10:04:20;;;;;;;0.40;0.40;;;;;;;19.55;76.65;98935.94;5012483;28;20042;-83
2023/08/06 10:06:52;;;;;;;0.73;0.70;;;;;;;19.56;76.92;98926.81;4984849;28;20157;-85
2023/08/06 10:09:20;;;;;;;0.52;0.52;;;;;;;19.64;76.56;98934.66;4970531;28;20069;-85
2023/08/06 10:11:52;;;;;;;0.50;0.50;;;;;;;19.61;75.38;98940.44;4978882;28;20054;-84
2023/08/06 10:14:26;;;;;;;0.60;0.60;;;;;;;19.58;76.83;98934.69;4966417;28;20046;-84
2023/08/06 10:16:54;;;;;;;1.38;0.45;;;;;;;19.60;76.81;98938.00;4984757;28;20108;-84
2023/08/06 10:19:21;;;;;;;1.77;0.60;;;;;;;19.62;75.89;98938.59;4973699;28;20512;-87
2023/08/06 10:22:11;;;;;;;0.50;0.50;;;;;;;19.47;76.94;98939.72;4985423;28;20409;-86
2023/08/06 10:24:49;;;;;;;0.75;0.68;;;;;;;19.47;76.30;98953.19;5005529;28;20050;-86
2023/08/06 10:27:30;;;;;;;0.88;0.60;;;;;;;19.43;75.63;98940.34;4983093;28;20513;-86
2023/08/06 10:30:26;;;;;;;0.60;0.60;;;;;;;19.38;75.94;98949.06;4995591;28;20509;-85
2023/08/06 10:32:56;;;;;;;1.23;0.50;;;;;;;19.40;76.23;98932.72;4968420;28;20050;-83
2023/08/06 10:35:48;;;;;;;0.40;0.40;;;;;;;19.36;76.25;98935.03;4968106;28;20078;-86
2023/08/06 10:38:22;;;;;;;0.63;0.50;;;;;;;19.41;76.13;98937.91;4981160;28;20426;-84
2023/08/06 10:40:52;;;;;;;4.03;1.25;;;;;;;19.45;76.43;98940.97;4968887;28;20387;-84
2023/08/06 10:43:32;;;;;;;0.60;0.40;;;;;;;19.40;77.51;98948.88;4984824;28;20826;-84
2023/08/06 10:46:01;;;;;;;2.13;0.73;;;;;;;19.46;77.18;98935.38;4983691;28;20572;-83
2023/08/06 10:48:38;;;;;;;0.73;0.73;;;;;;;19.43;76.39;98943.03;4982820;28;20138;-83
2023/08/06 10:51:09;;;;;;;0.57;0.57;;;;;;;19.32;76.94;98947.25;5013873;28;20060;-84
2023/08/06 10:53:36;;;;;;;0.60;0.60;;;;;;;19.36;76.49;98947.63;4967047;28;20100;-83
2023/08/06 10:56:14;;;;;;;1.27;0.90;;;;;;;19.25;76.59;98939.19;4976091;28;20053;-84
2023/08/06 10:58:41;;;;;;;0.85;0.68;;;;;;;19.35;76.59;98943.31;4973907;28;20052;-84
2023/08/06 11:01:09;;;;;;;1.52;0.60;;;;;;;19.31;76.16;98953.69;4966361;28;20050;-84
2023/08/06 11:03:36;;;;;;;1.02;0.73;;;;;;;19.35;76.46;98948.69;4986325;28;20736;-84
2023/08/06 11:06:04;;;;;;;1.15;0.88;;;;;;;19.36;76.42;98948.47;4975826;28;20042;-84
2023/08/06 11:08:36;;;;;;;1.05;0.70;;;;;;;19.33;76.49;98948.06;4949084;28;20072;-84
2023/08/06 11:11:14;;;;;;;1.85;0.57;;;;;;;19.37;75.30;98954.69;4982988;28;20045;-84
2023/08/06 11:13:42;;;;;;;0.40;0.40;;;;;;;19.34;75.27;98947.88;4986854;28;20121;-83
2023/08/06 11:16:09;;;;;;;2.75;0.60;;;;;;;19.34;75.48;98958.63;5017723;28;20037;-84
2023/08/06 11:18:36;;;;;;;1.05;0.50;;;;;;;19.30;75.99;98955.53;4967242;28;20395;-85
2023/08/06 11:21:03;;;;;;;0.50;0.50;;;;;;;19.25;76.61;98960.72;5002021;28;20065;-82
2023/08/06 11:23:30;;;;;;;0.40;0.40;;;;;;;19.22;76.08;98941.50;5004194;28;20141;-82
2023/08/06 11:25:57;;;;;;;2.28;0.85;;;;;;;19.17;76.11;98963.66;4983655;28;20042;-83
2023/08/06 11:28:24;;;;;;;0.60;0.60;;;;;;;19.08;76.95;98975.69;5011387;28;20062;-82
2023/08/06 11:30:51;;;;;;;4.03;1.25;;;;;;;19.00;76.81;98976.75;4999174;28;20054;-81
2023/08/06 11:33:25;;;;;;;1.27;0.70;;;;;;;18.92;77.62;98978.84;5034108;28;20046;-81
2023/08/06 11:35:53;;;;;;;1.13;0.43;;;;;;;18.86;77.45;98973.28;4976024;28;20139;-80
2023/08/06 11:38:20;;;;;;;0.85;0.55;;;;;;;18.78;77.25;98976.19;4975568;28;20687;-82
2023/08/06 11:40:47;;;;;;;0.85;0.60;;;;;;;18.77;78.11;98995.22;4988518;28;20486;-80